EGNM/LBA METAR and TAF weather

Enter ICAO airport designator
Station Type Date Time Source
EGNM METAR 2018/12/18 12:20 UTC NOAA

EGNM 181220Z 17016KT 130V220 9999 -RA SCT018 BKN020 08/06 Q1001


Station Type Date Time Source
EGNM Decoded METAR 2018/12/18 12:20 UTC NOAA

Leeds And Bradford, United Kingdom (EGNM) 53-52N 001-39W
Dec 18, 2018 - 07:20 AM EST / 2018.12.18 1220 UTC
Wind: from the S (170 degrees) at 18 MPH (16 KT) (direction variable):0
Visibility: greater than 7 mile(s):0
Sky conditions: mostly cloudy
Weather: light rain
Temperature: 46 F (8 C)
Dew Point: 42 F (6 C)
Relative Humidity: 87%
Pressure (altimeter): 29.56 in. Hg (1001 hPa)
ob: EGNM 181220Z 17016KT 130V220 9999 -RA SCT018 BKN020 08/06 Q1001
cycle: 12

Station Type Date Time Source
EGNM TAF 2018/12/18 12:09 UTC NOAA

TAF TAF EGNM 181059Z 1812/1912 17018G28KT 9999 BKN020
TEMPO 1812/1822 7000 RA BKN008 PROB30
TEMPO 1817/1821 4000 +RA BKN004
BECMG 1819/1822 21009KT PROB30
TEMPO 1900/1907 7000 -SHRA BKN008


Example: see airport list